Time;durP1;ratioP1;P1;durP2;ratioP2;P2;SDS_P1;SDS_P2;PMS_P1;PMS_P2;Temp;Humidity;BMP_temperature;BMP_pressure;BME280_temperature;BME280_humidity;BME280_pressure;Samples;Min_cycle;Max_cycle;Signal;HPM_P1;HPM_P2
2024/02/24 00:00:23;;;;;;;6.43;5.43;;;;;;;2.53;100.00;100772.19;5034257;28;20067;-71
2024/02/24 00:02:48;;;;;;;6.03;5.10;;;;;;;1.93;100.00;100675.81;5037824;28;20091;-71
2024/02/24 00:05:14;;;;;;;7.03;5.70;;;;;;;2.72;100.00;100804.09;5036817;28;20030;-69
2024/02/24 00:07:39;;;;;;;6.97;6.27;;;;;;;2.50;100.00;100764.53;5038774;28;20040;-70
2024/02/24 00:10:05;;;;;;;5.97;5.20;;;;;;;2.31;100.00;100757.13;5037672;28;20099;-68
2024/02/24 00:12:31;;;;;;;5.47;4.63;;;;;;;2.69;100.00;100816.66;5037034;28;20435;-70
2024/02/24 00:14:58;;;;;;;7.03;5.03;;;;;;;2.67;100.00;100797.50;5039118;28;20296;-71
2024/02/24 00:17:24;;;;;;;6.00;4.87;;;;;;;2.63;100.00;100788.16;5036420;28;20067;-70
2024/02/24 00:19:50;;;;;;;6.80;5.57;;;;;;;2.72;100.00;100805.91;5035041;28;20694;-70
2024/02/24 00:22:15;;;;;;;5.27;4.53;;;;;;;2.75;100.00;100817.03;5034947;28;20045;-71
2024/02/24 00:24:41;;;;;;;5.53;5.03;;;;;;;2.73;100.00;100815.47;5033170;28;20060;-71
2024/02/24 00:27:08;;;;;;;6.03;5.03;;;;;;;2.63;100.00;100807.41;5033897;28;20099;-70
2024/02/24 00:29:33;;;;;;;5.93;4.83;;;;;;;2.73;100.00;100824.19;5033856;28;20059;-70
2024/02/24 00:31:59;;;;;;;5.20;4.50;;;;;;;2.75;100.00;100827.56;5038533;28;20751;-70
2024/02/24 00:34:24;;;;;;;6.60;4.97;;;;;;;2.76;100.00;100818.72;5038161;28;20116;-71
2024/02/24 00:36:50;;;;;;;5.57;4.80;;;;;;;2.73;100.00;100821.56;5036274;28;20037;-69
2024/02/24 00:39:16;;;;;;;7.00;5.70;;;;;;;2.74;100.00;100818.00;5036484;28;20037;-70
2024/02/24 00:41:42;;;;;;;6.00;5.00;;;;;;;2.73;100.00;100816.31;5033242;28;20033;-69
2024/02/24 00:44:09;;;;;;;5.13;4.63;;;;;;;2.78;100.00;100829.97;5033070;28;20025;-69
2024/02/24 00:46:37;;;;;;;5.80;4.40;;;;;;;2.71;100.00;100822.63;5033757;28;20381;-71
2024/02/24 00:49:02;;;;;;;4.50;3.67;;;;;;;2.67;100.00;100829.06;5031782;28;20275;-72
2024/02/24 00:51:28;;;;;;;5.70;4.77;;;;;;;2.71;100.00;100831.34;5033003;28;20279;-70
2024/02/24 00:53:53;;;;;;;5.60;4.33;;;;;;;2.64;100.00;100811.72;5032555;28;20493;-74
2024/02/24 00:56:21;;;;;;;7.07;4.97;;;;;;;2.70;100.00;100824.41;5033034;28;20025;-68
2024/02/24 00:58:46;;;;;;;5.67;5.07;;;;;;;2.65;100.00;100820.44;5038143;28;20037;-70
2024/02/24 01:01:12;;;;;;;6.53;4.97;;;;;;;2.73;100.00;100839.97;5037416;28;20322;-67
2024/02/24 01:03:38;;;;;;;5.13;4.63;;;;;;;2.44;100.00;100789.47;5040068;28;20450;-69
2024/02/24 01:06:04;;;;;;;6.73;5.93;;;;;;;2.68;100.00;100834.22;5040924;28;20033;-69
2024/02/24 01:08:30;;;;;;;5.97;5.33;;;;;;;2.73;100.00;100839.97;5035192;28;20045;-70
2024/02/24 01:10:56;;;;;;;8.03;5.43;;;;;;;2.66;100.00;100812.44;5031647;28;20037;-69
2024/02/24 01:13:21;;;;;;;6.83;5.50;;;;;;;2.82;100.00;100837.63;5032693;28;20496;-70
2024/02/24 01:15:47;;;;;;;9.30;6.53;;;;;;;2.83;100.00;100824.34;5032758;28;20296;-72
2024/02/24 01:18:13;;;;;;;8.03;6.20;;;;;;;2.85;100.00;100825.09;5032678;28;20041;-72
2024/02/24 01:20:39;;;;;;;6.70;5.70;;;;;;;2.56;100.00;100774.59;5032645;28;20040;-71
2024/02/24 01:23:05;;;;;;;7.93;5.83;;;;;;;2.83;100.00;100815.63;5032648;28;20264;-72
2024/02/24 01:25:34;;;;;;;9.20;5.80;;;;;;;2.93;100.00;100824.56;4905028;28;3665355;-70
2024/02/24 01:28:00;;;;;;;7.77;6.17;;;;;;;3.02;100.00;100842.28;5034048;28;20056;-68
2024/02/24 01:30:26;;;;;;;9.07;6.00;;;;;;;2.97;100.00;100841.78;5032334;28;20268;-68
2024/02/24 01:32:52;;;;;;;9.97;6.80;;;;;;;3.01;100.00;100854.59;5033413;28;20049;-70
2024/02/24 01:35:17;;;;;;;7.63;6.40;;;;;;;2.92;100.00;100825.50;5034140;28;20288;-70
2024/02/24 01:37:43;;;;;;;8.07;5.90;;;;;;;2.96;100.00;100837.47;5034377;28;20049;-70
2024/02/24 01:40:08;;;;;;;6.70;5.43;;;;;;;2.72;100.00;100795.38;5034710;28;20374;-71
2024/02/24 01:42:34;;;;;;;7.27;5.30;;;;;;;2.97;100.00;100844.41;5035303;28;20527;-69
2024/02/24 01:45:01;;;;;;;9.13;6.87;;;;;;;2.80;100.00;100814.91;5032837;28;20079;-70
2024/02/24 01:47:28;;;;;;;8.03;5.60;;;;;;;2.90;100.00;100822.16;5032963;28;20110;-70
2024/02/24 01:49:55;;;;;;;7.30;5.57;;;;;;;2.91;100.00;100835.19;5032622;28;20862;-72
2024/02/24 01:52:21;;;;;;;8.43;5.97;;;;;;;2.93;100.00;100850.84;5032690;28;20322;-69
2024/02/24 01:54:47;;;;;;;9.27;5.90;;;;;;;2.84;100.00;100831.31;5032264;28;20304;-72
2024/02/24 01:57:13;;;;;;;6.17;5.53;;;;;;;3.01;100.00;100859.03;5032788;28;20077;-69
2024/02/24 01:59:39;;;;;;;7.13;5.00;;;;;;;2.11;100.00;100711.28;5032410;28;20667;-68
2024/02/24 02:02:04;;;;;;;8.00;6.90;;;;;;;2.85;100.00;100834.78;5032668;28;20064;-70
2024/02/24 02:04:30;;;;;;;6.90;5.17;;;;;;;2.94;100.00;100856.00;5031018;28;20585;-69
2024/02/24 02:06:58;;;;;;;5.83;4.90;;;;;;;2.69;100.00;100822.75;5031368;28;20117;-71
2024/02/24 02:09:25;;;;;;;6.50;5.67;;;;;;;2.97;100.00;100849.69;5031259;28;20400;-69
2024/02/24 02:11:51;;;;;;;8.53;5.23;;;;;;;3.01;100.00;100861.66;5031560;28;20264;-70
2024/02/24 02:14:16;;;;;;;6.33;5.07;;;;;;;3.03;100.00;100872.91;5032209;28;20260;-69
2024/02/24 02:16:42;;;;;;;5.73;4.93;;;;;;;2.94;100.00;100866.53;5014905;28;20478;-70
2024/02/24 02:19:08;;;;;;;6.00;4.97;;;;;;;3.04;100.00;100895.63;5032317;28;20051;-68
2024/02/24 02:21:35;;;;;;;5.90;5.00;;;;;;;3.02;100.00;100898.38;5031185;28;20048;-69
2024/02/24 02:24:03;;;;;;;7.20;5.27;;;;;;;2.91;100.00;100879.06;5031231;28;20045;-70
2024/02/24 02:26:29;;;;;;;6.57;5.20;;;;;;;2.82;100.00;100870.03;5030573;28;20357;-70
2024/02/24 02:28:55;;;;;;;6.87;5.10;;;;;;;2.92;100.00;100875.50;5031326;28;20038;-69
2024/02/24 02:31:20;;;;;;;8.43;4.57;;;;;;;2.82;100.00;100858.66;5031018;28;20287;-69
2024/02/24 02:33:46;;;;;;;6.20;5.60;;;;;;;2.96;100.00;100882.19;5031819;28;20033;-70
2024/02/24 02:36:11;;;;;;;7.07;5.70;;;;;;;3.06;100.00;100893.72;5031987;28;20041;-70
2024/02/24 02:38:37;;;;;;;6.93;5.20;;;;;;;3.13;100.00;100899.38;5032413;28;20413;-69
2024/02/24 02:41:03;;;;;;;7.03;5.53;;;;;;;3.10;100.00;100892.56;5030906;28;20509;-70
2024/02/24 02:43:28;;;;;;;7.90;5.53;;;;;;;3.00;100.00;100879.22;5032043;28;20037;-69
2024/02/24 02:45:55;;;;;;;5.40;4.83;;;;;;;3.03;100.00;100878.16;5031963;28;20592;-68
2024/02/24 02:48:21;;;;;;;5.60;4.80;;;;;;;3.27;100.00;100923.75;5031863;28;20362;-70
2024/02/24 02:50:46;;;;;;;7.33;5.33;;;;;;;3.15;100.00;100898.31;5030421;28;20033;-70
2024/02/24 02:53:12;;;;;;;6.40;5.30;;;;;;;3.28;100.00;100919.34;5032010;28;20037;-69
2024/02/24 02:55:37;;;;;;;6.47;5.60;;;;;;;3.22;100.00;100907.47;5031744;28;20044;-70
2024/02/24 02:58:03;;;;;;;5.33;4.80;;;;;;;3.35;100.00;100931.09;5032273;28;20128;-70
2024/02/24 03:00:28;;;;;;;7.00;6.17;;;;;;;3.27;100.00;100917.66;5031744;28;20037;-70
2024/02/24 03:02:54;;;;;;;8.43;5.63;;;;;;;3.08;100.00;100891.81;5014190;28;20033;-69
2024/02/24 03:05:20;;;;;;;6.87;5.90;;;;;;;3.21;100.00;100916.31;5030206;28;20389;-69
2024/02/24 03:07:45;;;;;;;7.00;5.70;;;;;;;3.21;100.00;100939.16;5031662;28;20432;-70
2024/02/24 03:10:11;;;;;;;6.77;5.30;;;;;;;3.23;100.00;100942.53;5032223;28;20060;-68
2024/02/24 03:12:37;;;;;;;7.23;5.83;;;;;;;3.13;100.00;100926.53;5032229;28;20061;-69
2024/02/24 03:15:03;;;;;;;8.77;6.27;;;;;;;3.14;100.00;100922.13;5031808;28;20041;-68
2024/02/24 03:17:30;;;;;;;7.10;6.17;;;;;;;3.22;100.00;100944.31;5031701;28;20040;-70
2024/02/24 03:19:55;;;;;;;7.87;5.90;;;;;;;3.21;100.00;100947.91;5030186;28;20272;-70
2024/02/24 03:22:21;;;;;;;7.23;6.10;;;;;;;3.18;100.00;100947.25;5030367;28;20044;-70
2024/02/24 03:24:47;;;;;;;7.90;5.83;;;;;;;3.13;100.00;100942.31;5031581;28;20037;-69
2024/02/24 03:27:16;;;;;;;6.70;6.00;;;;;;;3.16;100.00;100938.63;5031401;28;20058;-70
2024/02/24 03:29:42;;;;;;;7.90;6.03;;;;;;;3.21;100.00;100940.00;5035279;28;20113;-69
2024/02/24 03:32:07;;;;;;;7.47;5.53;;;;;;;3.16;100.00;100936.84;5044837;28;20280;-64
2024/02/24 03:34:33;;;;;;;8.03;6.30;;;;;;;3.27;100.00;100944.81;5034629;28;20046;-68
2024/02/24 03:36:58;;;;;;;7.60;6.10;;;;;;;3.19;100.00;100930.53;5034100;28;20462;-69
2024/02/24 03:39:24;;;;;;;7.70;6.13;;;;;;;3.26;100.00;100943.13;5032528;28;20447;-70
2024/02/24 03:41:50;;;;;;;7.20;6.40;;;;;;;2.49;100.00;100820.69;5031969;28;20025;-70
2024/02/24 03:44:15;;;;;;;7.80;6.10;;;;;;;3.27;100.00;100941.34;5031412;28;20032;-70
2024/02/24 03:46:42;;;;;;;8.37;6.43;;;;;;;3.29;100.00;100932.38;5032305;28;20055;-71
2024/02/24 03:49:08;;;;;;;8.80;6.47;;;;;;;3.38;100.00;100950.13;5032024;28;20033;-70
2024/02/24 03:51:34;;;;;;;6.77;6.07;;;;;;;3.45;100.00;100953.16;5033630;28;20283;-69
2024/02/24 03:54:00;;;;;;;9.10;6.43;;;;;;;3.48;100.00;100960.00;5031708;28;20375;-70
2024/02/24 03:56:25;;;;;;;9.53;7.03;;;;;;;3.52;100.00;100969.38;5031747;28;20391;-69
2024/02/24 03:58:51;;;;;;;9.43;6.93;;;;;;;3.40;100.00;100944.75;5031054;28;20121;-70
2024/02/24 04:01:17;;;;;;;11.20;6.93;;;;;;;3.49;100.00;100969.59;5030923;28;20167;-70
2024/02/24 04:03:42;;;;;;;8.47;6.10;;;;;;;3.29;100.00;100944.72;5030865;28;20048;-68
2024/02/24 04:06:08;;;;;;;8.10;6.53;;;;;;;3.23;100.00;100959.16;5031765;28;20033;-69
2024/02/24 04:08:34;;;;;;;10.57;7.80;;;;;;;3.34;100.00;100975.00;5031061;28;20781;-69
2024/02/24 04:11:00;;;;;;;8.00;6.67;;;;;;;2.98;100.00;100922.38;5031346;28;20047;-70
2024/02/24 04:13:25;;;;;;;8.87;7.50;;;;;;;3.31;100.00;100982.28;5030922;28;20049;-69
2024/02/24 04:15:51;;;;;;;7.87;6.03;;;;;;;3.09;100.00;100954.03;5031060;28;20126;-69
2024/02/24 04:18:17;;;;;;;8.43;7.20;;;;;;;3.28;100.00;100987.78;5031894;28;20025;-69
2024/02/24 04:20:46;;;;;;;9.70;6.70;;;;;;;3.37;100.00;100995.00;5035274;28;20037;-68
2024/02/24 04:23:13;;;;;;;7.10;6.20;;;;;;;3.40;100.00;100995.63;5034960;28;20268;-68
2024/02/24 04:25:44;;;;;;;10.03;6.43;;;;;;;3.40;100.00;100982.44;5034467;28;20383;-71
2024/02/24 04:28:12;;;;;;;7.43;6.37;;;;;;;3.40;100.00;100992.97;5034782;28;20288;-69
2024/02/24 04:30:38;;;;;;;9.57;7.17;;;;;;;3.43;100.00;100999.81;5034349;28;20264;-70
2024/02/24 04:33:04;;;;;;;7.93;6.90;;;;;;;3.35;100.00;100995.09;5033187;28;20283;-69
2024/02/24 04:35:30;;;;;;;10.47;7.63;;;;;;;3.25;100.00;100991.47;5034457;28;20346;-69
2024/02/24 04:37:55;;;;;;;9.40;7.87;;;;;;;3.38;100.00;101007.22;5034632;28;20111;-69
2024/02/24 04:40:21;;;;;;;11.10;8.57;;;;;;;3.35;100.00;101016.16;5034697;28;20132;-71
2024/02/24 04:42:47;;;;;;;14.20;10.00;;;;;;;2.53;100.00;100892.28;5034432;28;20124;-70
2024/02/24 04:45:12;;;;;;;13.10;9.73;;;;;;;3.25;100.00;101014.31;5034579;28;20095;-71
2024/02/24 04:47:38;;;;;;;15.20;10.57;;;;;;;3.32;100.00;101029.56;5034272;28;20044;-70
2024/02/24 04:50:04;;;;;;;13.73;9.97;;;;;;;3.22;100.00;100996.94;5035178;28;20040;-70
2024/02/24 04:52:30;;;;;;;13.00;10.10;;;;;;;3.41;100.00;101031.53;5036616;28;20037;-69
2024/02/24 04:54:56;;;;;;;12.70;9.53;;;;;;;3.40;100.00;101023.72;5033113;28;20772;-70
2024/02/24 04:57:21;;;;;;;12.33;8.97;;;;;;;3.34;100.00;101032.91;5034439;28;20029;-68
2024/02/24 04:59:47;;;;;;;11.67;8.50;;;;;;;3.22;100.00;101018.00;5033097;28;20045;-68
2024/02/24 05:02:13;;;;;;;10.80;8.50;;;;;;;3.28;100.00;101022.84;5033739;28;20042;-70
2024/02/24 05:04:39;;;;;;;10.23;7.87;;;;;;;3.37;100.00;101034.50;5017355;28;20136;-69
2024/02/24 05:07:04;;;;;;;10.53;8.70;;;;;;;2.89;100.00;100960.72;5032809;28;20276;-69
2024/02/24 05:09:30;;;;;;;11.80;7.70;;;;;;;3.21;100.00;101007.59;5033724;28;20045;-69
2024/02/24 05:11:55;;;;;;;12.90;8.47;;;;;;;3.31;100.00;101030.50;5032258;28;20033;-69
2024/02/24 05:14:21;;;;;;;12.00;8.03;;;;;;;3.25;100.00;101030.94;5033628;28;20029;-70
2024/02/24 05:16:47;;;;;;;10.40;8.00;;;;;;;3.23;100.00;101032.84;5032462;28;20056;-71
2024/02/24 05:19:12;;;;;;;8.97;7.40;;;;;;;3.16;100.00;101018.41;5033422;28;20165;-71
2024/02/24 05:21:38;;;;;;;12.43;8.27;;;;;;;3.28;100.00;101028.09;5033649;28;20497;-71
2024/02/24 05:24:06;;;;;;;11.47;8.70;;;;;;;3.32;100.00;101031.34;5032501;28;20037;-69
2024/02/24 05:26:33;;;;;;;12.13;7.37;;;;;;;3.38;100.00;101028.28;5033481;28;20318;-70
2024/02/24 05:28:59;;;;;;;10.93;8.13;;;;;;;3.42;100.00;101041.09;5032876;28;20792;-69
2024/02/24 05:31:24;;;;;;;10.93;7.77;;;;;;;3.22;100.00;101020.66;5034425;28;20351;-69
2024/02/24 05:33:52;;;;;;;9.43;7.37;;;;;;;3.39;100.00;101038.69;5038175;28;20139;-71
2024/02/24 05:36:20;;;;;;;11.97;8.17;;;;;;;3.49;100.00;101038.06;5034902;28;20037;-70
2024/02/24 05:38:46;;;;;;;13.18;9.07;;;;;;;3.50;100.00;101021.31;5036925;28;20395;-72
2024/02/24 05:41:12;;;;;;;10.87;7.77;;;;;;;3.59;100.00;101039.91;5035030;28;20128;-72
2024/02/24 05:43:38;;;;;;;12.80;8.57;;;;;;;3.54;100.00;101031.50;5037124;28;20029;-70
2024/02/24 05:46:08;;;;;;;13.53;9.27;;;;;;;3.56;100.00;101026.13;5036809;28;21003;-70
2024/02/24 05:48:37;;;;;;;12.73;9.73;;;;;;;3.56;100.00;101031.38;5032853;28;20508;-70
2024/02/24 05:51:04;;;;;;;;;;;;;;;3.71;100.00;101053.97;5032943;28;20295;-72
2024/02/24 05:53:29;;;;;;;11.07;8.23;;;;;;;3.45;100.00;101023.41;5032070;28;20388;-70
2024/02/24 05:55:55;;;;;;;13.87;9.80;;;;;;;3.43;100.00;101023.50;5032977;28;20317;-70
2024/02/24 05:58:21;;;;;;;15.10;10.17;;;;;;;3.53;100.00;101039.50;5032649;28;20037;-68
2024/02/24 06:00:47;;;;;;;15.97;10.40;;;;;;;3.54;100.00;101044.66;5033252;28;20041;-70
2024/02/24 06:03:13;;;;;;;13.67;9.23;;;;;;;3.38;100.00;101021.22;5044194;28;20283;-70
2024/02/24 06:05:38;;;;;;;17.00;10.37;;;;;;;3.36;100.00;101022.28;5050043;28;20101;-65
2024/02/24 06:08:05;;;;;;;17.33;10.97;;;;;;;3.41;100.00;101051.75;5045403;28;20729;-66
2024/02/24 06:10:30;;;;;;;14.83;10.47;;;;;;;3.56;100.00;101065.63;5034860;28;20037;-72
2024/02/24 06:12:56;;;;;;;17.07;10.20;;;;;;;3.53;100.00;101061.41;5023331;28;20292;-71
2024/02/24 06:15:21;;;;;;;17.00;10.33;;;;;;;3.36;100.00;101033.66;5028838;28;20051;-69
2024/02/24 06:17:47;;;;;;;16.67;10.97;;;;;;;3.58;100.00;101068.97;5031324;28;20048;-67
2024/02/24 06:20:13;;;;;;;16.27;10.60;;;;;;;3.37;100.00;101037.13;5034374;28;20055;-66
2024/02/24 06:22:39;;;;;;;16.20;9.07;;;;;;;3.58;100.00;101068.97;5034547;28;20038;-72
2024/02/24 06:25:07;;;;;;;11.30;8.57;;;;;;;3.65;100.00;101070.22;5036088;28;20282;-72
2024/02/24 06:27:33;;;;;;;13.93;9.75;;;;;;;3.64;100.00;101056.22;5033556;28;20045;-69
2024/02/24 06:29:59;;;;;;;13.70;9.63;;;;;;;3.74;100.00;101062.47;5016903;28;20036;-69
2024/02/24 06:32:25;;;;;;;14.13;9.67;;;;;;;3.66;100.00;101051.66;5016950;28;20084;-70
2024/02/24 06:34:50;;;;;;;15.80;9.73;;;;;;;3.68;100.00;101062.09;5032764;28;20338;-69
2024/02/24 06:37:16;;;;;;;14.13;9.53;;;;;;;3.56;100.00;101044.56;5030904;28;20041;-71
2024/02/24 06:39:42;;;;;;;15.10;10.20;;;;;;;3.54;100.00;101047.28;5032416;28;20128;-73
2024/02/24 06:42:08;;;;;;;16.53;10.03;;;;;;;3.56;100.00;101049.81;5031859;28;20076;-69
2024/02/24 06:44:33;;;;;;;16.13;9.97;;;;;;;3.81;100.00;101080.50;5016724;28;20065;-69
2024/02/24 06:46:59;;;;;;;14.33;10.20;;;;;;;3.78;100.00;101068.41;5027438;28;20033;-67
2024/02/24 06:49:24;;;;;;;16.77;10.07;;;;;;;3.78;100.00;101072.81;5044951;28;20069;-71
2024/02/24 06:51:51;;;;;;;15.53;9.73;;;;;;;3.75;100.00;101055.41;5035821;28;20041;-71
2024/02/24 06:54:16;;;;;;;17.20;10.77;;;;;;;3.86;100.00;101063.41;5033038;28;20033;-69
2024/02/24 06:56:42;;;;;;;14.07;9.90;;;;;;;3.78;100.00;101043.84;5053766;28;20299;-66
2024/02/24 06:59:08;;;;;;;18.17;10.80;;;;;;;3.99;100.00;101064.16;5031192;28;20036;-73
2024/02/24 07:01:34;;;;;;;21.53;11.33;;;;;;;4.00;100.00;101052.66;5031386;28;20065;-70
2024/02/24 07:04:03;;;;;;;17.80;12.07;;;;;;;4.17;100.00;101071.69;5030209;28;20311;-70
2024/02/24 07:06:28;;;;;;;17.63;11.60;;;;;;;4.18;100.00;101079.47;5030436;28;20092;-69
2024/02/24 07:08:54;;;;;;;17.63;10.40;;;;;;;4.19;100.00;101091.69;5013037;28;20152;-73
2024/02/24 07:11:20;;;;;;;16.80;10.70;;;;;;;4.06;100.00;101092.72;5030345;28;20833;-70
2024/02/24 07:13:45;;;;;;;15.90;10.50;;;;;;;3.93;100.00;101080.44;5030083;28;20048;-71
2024/02/24 07:16:13;;;;;;;16.67;10.53;;;;;;;3.88;100.00;101066.75;5031347;28;20508;-74
2024/02/24 07:18:39;;;;;;;19.20;12.30;;;;;;;3.87;100.00;101059.81;5030131;28;20033;-72
2024/02/24 07:21:05;;;;;;;16.70;10.53;;;;;;;3.62;100.00;101007.22;5031208;28;20045;-76
2024/02/24 07:23:31;;;;;;;17.63;11.13;;;;;;;3.97;100.00;101055.53;5031275;28;20041;-69
2024/02/24 07:26:03;;;;;;;19.87;12.53;;;;;;;4.08;100.00;101067.09;5030086;28;20287;-71
2024/02/24 07:28:31;;;;;;;13.83;10.80;;;;;;;3.77;100.00;101032.47;5030296;28;20046;-70
2024/02/24 07:30:56;;;;;;;18.30;13.10;;;;;;;3.92;100.00;101062.94;5031709;28;20845;-71
2024/02/24 07:33:22;;;;;;;20.83;13.07;;;;;;;3.90;100.00;101069.28;5031632;28;20268;-74
2024/02/24 07:35:48;;;;;;;22.10;13.07;;;;;;;3.93;100.00;101076.97;5014246;28;20104;-75
2024/02/24 07:38:13;;;;;;;17.50;11.93;;;;;;;3.87;100.00;101070.34;5031159;28;20378;-74
2024/02/24 07:40:40;;;;;;;18.33;11.00;;;;;;;4.01;100.00;101087.78;5031410;28;20037;-69
2024/02/24 07:43:05;;;;;;;18.50;12.43;;;;;;;3.55;100.00;100995.47;5031426;28;20476;-73
2024/02/24 07:45:31;;;;;;;21.50;13.30;;;;;;;3.24;100.00;100955.56;5029847;28;20284;-71
2024/02/24 07:47:56;;;;;;;19.00;13.83;;;;;;;4.02;100.00;101056.03;5030776;28;20033;-71
2024/02/24 07:50:22;;;;;;;20.50;11.07;;;;;;;3.97;100.00;101037.09;5046043;28;20082;-72
2024/02/24 07:52:48;;;;;;;20.93;11.90;;;;;;;4.03;100.00;101055.06;5031012;28;20390;-73
2024/02/24 07:55:14;;;;;;;22.67;12.23;;;;;;;4.12;100.00;101064.13;5034488;28;20041;-70
2024/02/24 07:57:39;;;;;;;20.73;13.83;;;;;;;4.04;100.00;101043.56;5034807;28;20036;-71
2024/02/24 08:00:06;;;;;;;22.23;13.47;;;;;;;4.10;100.00;101059.91;5050161;28;20037;-70
2024/02/24 08:02:32;;;;;;;17.97;13.07;;;;;;;4.06;100.00;101061.94;5035013;28;20037;-73
2024/02/24 08:04:58;;;;;;;20.30;12.20;;;;;;;3.95;100.00;101056.59;5034578;28;20639;-71
2024/02/24 08:07:24;;;;;;;16.33;11.20;;;;;;;3.74;100.00;101032.66;5034453;28;20272;-72
2024/02/24 08:09:49;;;;;;;18.83;12.63;;;;;;;4.06;100.00;101080.38;5037719;28;20264;-72
2024/02/24 08:12:15;;;;;;;26.17;12.03;;;;;;;3.94;100.00;101063.66;5038978;28;20465;-72
2024/02/24 08:14:41;;;;;;;31.97;19.03;;;;;;;4.14;100.00;101093.00;5035038;28;20055;-72
2024/02/24 08:17:07;;;;;;;25.33;15.67;;;;;;;4.20;100.00;101118.91;5034146;28;20041;-68
2024/02/24 08:19:33;;;;;;;19.30;12.40;;;;;;;4.09;100.00;101097.78;5055260;28;20053;-70
2024/02/24 08:22:00;;;;;;;20.73;13.30;;;;;;;4.14;100.00;101114.09;5031501;28;20037;-69
2024/02/24 08:24:26;;;;;;;22.63;13.93;;;;;;;4.10;100.00;101112.63;5034007;28;20275;-70
2024/02/24 08:26:55;;;;;;;19.67;13.07;;;;;;;4.14;100.00;101112.28;5034138;28;20288;-69
2024/02/24 08:29:20;;;;;;;23.27;13.33;;;;;;;4.12;100.00;101103.66;5031773;28;20042;-72
2024/02/24 08:31:46;;;;;;;23.43;13.70;;;;;;;4.10;100.00;101117.91;5034090;28;20276;-74
2024/02/24 08:34:12;;;;;;;27.67;15.40;;;;;;;4.15;100.00;101121.03;5034104;28;20040;-74
2024/02/24 08:36:38;;;;;;;17.10;12.93;;;;;;;3.84;100.00;101086.38;5033956;28;20053;-72
2024/02/24 08:39:04;;;;;;;18.77;12.63;;;;;;;3.98;100.00;101120.47;5033187;28;20388;-70
2024/02/24 08:41:33;;;;;;;20.60;13.63;;;;;;;3.99;100.00;101116.88;5031084;28;20042;-72
2024/02/24 08:44:03;;;;;;;19.30;12.80;;;;;;;3.86;100.00;101105.56;5033598;28;20136;-72
2024/02/24 08:46:31;;;;;;;20.93;11.80;;;;;;;3.97;100.00;101126.69;5033291;28;20337;-75
2024/02/24 08:48:57;;;;;;;19.37;10.40;;;;;;;3.99;100.00;101126.56;5033746;28;20655;-72
2024/02/24 08:51:24;;;;;;;20.40;11.30;;;;;;;3.98;100.00;101114.34;5030633;28;20088;-71
2024/02/24 08:53:49;;;;;;;20.50;11.93;;;;;;;4.00;100.00;101108.00;5033712;28;20308;-75
2024/02/24 08:56:20;;;;;;;20.30;12.37;;;;;;;4.11;100.00;101119.59;5034111;28;20395;-71
2024/02/24 08:58:46;;;;;;;25.43;12.33;;;;;;;4.29;100.00;101136.66;5032202;28;20037;-74
2024/02/24 09:01:14;;;;;;;17.33;11.27;;;;;;;4.33;100.00;101135.47;5033490;28;20674;-71
2024/02/24 09:03:39;;;;;;;17.33;11.50;;;;;;;4.30;100.00;101130.44;5032823;28;20648;-74
2024/02/24 09:06:05;;;;;;;15.10;11.47;;;;;;;4.24;100.00;101115.06;5033727;28;20261;-73
2024/02/24 09:08:31;;;;;;;17.03;10.33;;;;;;;4.36;100.00;101140.56;5033911;28;20037;-72
2024/02/24 09:10:57;;;;;;;17.70;11.20;;;;;;;4.27;100.00;101113.06;5033612;28;20052;-72
2024/02/24 09:13:22;;;;;;;16.80;9.97;;;;;;;4.43;100.00;101133.88;5031104;28;20636;-70
2024/02/24 09:15:48;;;;;;;16.67;11.30;;;;;;;4.26;100.00;101102.63;5032315;28;20037;-73
2024/02/24 09:18:14;;;;;;;12.60;10.03;;;;;;;4.39;100.00;101118.38;5038193;28;20034;-73
2024/02/24 09:20:39;;;;;;;13.43;9.20;;;;;;;4.44;100.00;101111.81;5039839;28;20458;-71
2024/02/24 09:23:05;;;;;;;11.80;7.97;;;;;;;4.30;100.00;101072.44;5045041;28;20132;-74
2024/02/24 09:25:30;;;;;;;13.27;9.23;;;;;;;4.65;100.00;101106.72;5046697;28;20132;-75
2024/02/24 09:27:56;;;;;;;14.17;8.90;;;;;;;4.68;100.00;101097.75;5042886;28;20042;-71
2024/02/24 09:30:23;;;;;;;16.17;10.17;;;;;;;4.56;100.00;101087.13;5040386;28;20491;-71
2024/02/24 09:32:49;;;;;;;15.20;10.93;;;;;;;4.36;100.00;101077.28;5042620;28;20091;-75
2024/02/24 09:35:14;;;;;;;12.40;10.07;;;;;;;4.48;100.00;101118.53;5042084;28;20667;-75
2024/02/24 09:37:40;;;;;;;17.23;9.70;;;;;;;4.17;100.00;101069.03;5042931;28;20036;-74
2024/02/24 09:40:06;;;;;;;15.70;10.07;;;;;;;4.48;100.00;101118.53;5044056;28;20033;-76
2024/02/24 09:42:33;;;;;;;12.43;8.67;;;;;;;4.56;100.00;101110.03;5041077;28;20033;-73
2024/02/24 09:45:03;;;;;;;15.93;9.80;;;;;;;4.63;100.00;101104.22;5039837;28;20300;-70
2024/02/24 09:47:32;;;;;;;16.50;10.47;;;;;;;4.69;100.00;101109.97;5042189;28;20272;-70
2024/02/24 09:49:59;;;;;;;15.37;10.67;;;;;;;4.59;100.00;101102.72;5046038;28;20276;-73
2024/02/24 09:52:25;;;;;;;15.70;9.60;;;;;;;4.58;100.00;101108.97;5043863;28;20275;-70
2024/02/24 09:54:51;;;;;;;13.60;9.93;;;;;;;4.30;100.00;101072.44;5038572;28;20295;-72
2024/02/24 09:57:19;;;;;;;13.43;8.93;;;;;;;4.31;100.00;101089.94;5037240;28;20048;-71
2024/02/24 09:59:45;;;;;;;14.52;9.68;;;;;;;4.48;100.00;101102.72;5038164;28;20045;-74
2024/02/24 10:02:12;;;;;;;14.50;9.30;;;;;;;4.46;100.00;101082.69;5038293;28;20042;-70
2024/02/24 10:04:38;;;;;;;14.30;10.70;;;;;;;4.43;100.00;101083.75;5024909;28;20040;-70
2024/02/24 10:07:05;;;;;;;12.10;9.17;;;;;;;4.44;100.00;101095.16;5048184;28;20287;-73
2024/02/24 10:09:33;;;;;;;11.33;7.93;;;;;;;4.31;100.00;101084.66;5039796;28;20045;-72
2024/02/24 10:12:01;;;;;;;15.80;9.20;;;;;;;4.33;100.00;101077.47;5037564;28;20292;-71
2024/02/24 10:14:32;;;;;;;14.25;9.95;;;;;;;4.49;100.00;101112.31;5045501;28;20280;-71
2024/02/24 10:16:59;;;;;;;13.27;8.87;;;;;;;4.40;100.00;101089.28;5034877;28;20045;-70
2024/02/24 10:19:30;;;;;;;11.00;8.27;;;;;;;4.64;100.00;101103.25;5035470;28;20903;-70
2024/02/24 10:22:00;;;;;;;14.27;7.77;;;;;;;4.70;100.00;101106.38;5031620;28;20375;-73
2024/02/24 10:24:26;;;;;;;13.43;8.23;;;;;;;4.66;100.00;101101.34;5034595;28;20288;-70
2024/02/24 10:26:52;;;;;;;10.60;7.50;;;;;;;4.83;100.00;101109.75;5037485;28;20054;-74
2024/02/24 10:29:20;;;;;;;12.57;8.33;;;;;;;4.87;100.00;101098.84;5039154;28;20038;-74
2024/02/24 10:31:49;;;;;;;11.83;8.20;;;;;;;4.96;100.00;101092.03;5033723;28;20033;-77
2024/02/24 10:34:16;;;;;;;11.83;8.17;;;;;;;5.01;100.00;101094.31;5032134;28;20295;-72
2024/02/24 10:36:43;;;;;;;10.67;8.27;;;;;;;4.94;100.00;101083.41;5035274;28;20041;-71
2024/02/24 10:39:11;;;;;;;11.97;7.03;;;;;;;5.00;100.00;101082.06;5031186;28;20029;-72
2024/02/24 10:41:37;;;;;;;11.47;7.93;;;;;;;4.79;100.00;101044.97;5032501;28;20041;-72
2024/02/24 10:44:04;;;;;;;10.20;7.03;;;;;;;4.97;100.00;101068.16;5031721;28;20424;-74
2024/02/24 10:46:30;;;;;;;9.67;8.03;;;;;;;4.60;100.00;101003.34;5042703;28;20045;-69
2024/02/24 10:48:56;;;;;;;11.63;7.33;;;;;;;4.81;100.00;101061.53;5038414;28;20032;-72
2024/02/24 10:51:22;;;;;;;10.13;7.67;;;;;;;4.07;100.00;100949.44;5039605;28;20045;-72
2024/02/24 10:53:55;;;;;;;12.13;7.87;;;;;;;4.66;100.00;101056.50;5022118;28;20030;-74
2024/02/24 10:56:21;;;;;;;17.07;9.13;;;;;;;4.77;100.00;101070.66;5034489;28;20037;-71
2024/02/24 10:58:47;;;;;;;11.60;8.63;;;;;;;4.47;100.00;101029.81;5039411;28;20748;-73
2024/02/24 11:01:14;;;;;;;9.97;7.80;;;;;;;4.81;100.00;101053.63;5033067;28;20366;-72
2024/02/24 11:03:39;;;;;;;12.63;8.47;;;;;;;4.76;100.00;101037.31;5041715;28;20140;-73
2024/02/24 11:06:09;;;;;;;13.60;9.00;;;;;;;4.63;100.00;101027.72;5033298;28;20120;-73
2024/02/24 11:08:44;;;;;;;13.97;9.50;;;;;;;3.90;100.00;100906.75;5039558;28;20044;-69
2024/02/24 11:11:16;;;;;;;16.57;10.20;;;;;;;4.75;100.00;101051.47;5035626;28;20329;-73
2024/02/24 11:13:46;;;;;;;14.00;10.50;;;;;;;4.22;100.00;100995.72;5039930;28;20299;-74